Abel, Argentina
Current Conditions -  °F | °C
As of 10:00 AM on Thursday 27 Nov 2014 (Local Time) from SAEZ Reporting Station
Clear Clear  
Wind Chill: 75°   Ceiling: Unl
Heat Index: 75°   Visibility: 6mi
Dew Point: 59°   Wind: 0mph
Humidity: 57%   Direction: NA
Pressure: 30.03"   Gusts: NA
Location:  35.73°S, 61.95°W
Report Text: SAEZ 271300Z 00000KT CAVOK 24/15 Q1017
Loading
Personal Weather Stations






























Interactive Weather Map New forecast layout! Learn more

10-Day Weather Forecast

Advertisements
Track Severe Weather on mobile